createdAt,value
2024-02-20T00:00:13.242Z,66.50
2024-02-20T00:02:45.071Z,66.90
2024-02-20T00:05:14.322Z,66.80
2024-02-20T00:07:42.688Z,66.90
2024-02-20T00:10:15.242Z,67.10
2024-02-20T00:12:44.033Z,66.70
2024-02-20T00:15:12.052Z,66.90
2024-02-20T00:17:40.017Z,67.00
2024-02-20T00:20:10.058Z,67.00
2024-02-20T00:22:38.445Z,67.10
2024-02-20T00:25:07.183Z,67.40
2024-02-20T00:27:36.468Z,67.60
2024-02-20T00:30:05.342Z,67.20
2024-02-20T00:32:33.398Z,67.60
2024-02-20T00:35:01.662Z,67.40
2024-02-20T00:37:29.804Z,67.70
2024-02-20T00:39:57.758Z,67.50
2024-02-20T00:42:27.236Z,67.40
2024-02-20T00:44:55.591Z,67.70
2024-02-20T00:47:23.780Z,68.00
2024-02-20T00:49:52.576Z,67.70
2024-02-20T00:52:20.579Z,67.80
2024-02-20T00:54:48.816Z,68.30
2024-02-20T00:57:18.118Z,68.40
2024-02-20T00:59:46.090Z,68.70
2024-02-20T01:02:14.307Z,68.70
2024-02-20T01:04:42.647Z,68.80
2024-02-20T01:07:11.759Z,68.80
2024-02-20T01:09:39.904Z,68.50
2024-02-20T01:12:08.113Z,69.10
2024-02-20T01:14:36.097Z,69.10
2024-02-20T01:17:04.287Z,68.60
2024-02-20T01:19:32.263Z,68.40
2024-02-20T01:22:00.241Z,68.50
2024-02-20T01:24:28.181Z,68.00
2024-02-20T01:26:56.166Z,67.80
2024-02-20T01:29:24.491Z,68.00
2024-02-20T01:31:52.596Z,67.90
2024-02-20T01:34:20.563Z,67.80
2024-02-20T01:36:48.544Z,67.90
2024-02-20T01:39:16.433Z,68.00
2024-02-20T01:41:44.625Z,68.10
2024-02-20T01:44:12.598Z,68.00
2024-02-20T01:46:42.885Z,68.20
2024-02-20T01:49:11.251Z,68.20
2024-02-20T01:51:40.640Z,68.30
2024-02-20T01:54:08.572Z,68.30
2024-02-20T01:56:37.039Z,68.50
2024-02-20T01:59:05.652Z,68.60
2024-02-20T02:01:33.844Z,68.70
2024-02-20T02:04:02.115Z,68.90
2024-02-20T02:06:31.605Z,68.40
2024-02-20T02:08:59.691Z,68.10
2024-02-20T02:11:27.978Z,68.20
2024-02-20T02:13:56.030Z,68.20
2024-02-20T02:16:23.963Z,68.10
2024-02-20T02:18:52.279Z,68.30
2024-02-20T02:21:20.382Z,68.20
2024-02-20T02:23:48.373Z,68.20
2024-02-20T02:26:16.305Z,68.20
2024-02-20T02:28:49.026Z,67.80
2024-02-20T02:31:18.272Z,67.90
2024-02-20T02:33:50.346Z,67.60
2024-02-20T02:36:18.299Z,67.80
2024-02-20T02:38:46.176Z,67.80
2024-02-20T02:41:14.309Z,68.00
2024-02-20T02:43:42.388Z,67.90
2024-02-20T02:46:13.066Z,67.90
2024-02-20T02:48:41.052Z,68.10
2024-02-20T02:51:10.116Z,67.80
2024-02-20T02:53:41.311Z,67.60
2024-02-20T02:56:13.525Z,67.60
2024-02-20T02:58:41.968Z,67.60
2024-02-20T03:01:11.534Z,67.90
2024-02-20T03:03:40.358Z,67.70
2024-02-20T03:06:10.109Z,67.80
2024-02-20T03:08:39.331Z,67.60
2024-02-20T03:11:07.628Z,67.70
2024-02-20T03:13:36.091Z,67.60
2024-02-20T03:16:08.437Z,67.60
2024-02-20T03:18:40.017Z,67.40
2024-02-20T03:21:08.190Z,67.60
2024-02-20T03:23:36.487Z,67.60
2024-02-20T03:26:05.425Z,67.30
2024-02-20T03:28:33.648Z,67.20
2024-02-20T03:31:02.496Z,67.40
2024-02-20T03:33:34.946Z,67.60
2024-02-20T03:36:03.899Z,67.40
2024-02-20T03:38:34.332Z,67.60
2024-02-20T03:41:02.278Z,67.40
2024-02-20T03:43:30.569Z,67.60
2024-02-20T03:45:58.541Z,67.80
2024-02-20T03:48:26.905Z,67.60
2024-02-20T03:50:54.857Z,67.80
2024-02-20T03:53:22.826Z,67.60
2024-02-20T03:55:50.709Z,68.00
2024-02-20T03:58:18.660Z,67.80
2024-02-20T04:00:46.569Z,67.90
2024-02-20T04:03:14.512Z,67.60
2024-02-20T04:05:42.745Z,67.90
2024-02-20T04:08:10.748Z,67.60
2024-02-20T04:10:38.861Z,68.10
2024-02-20T04:13:06.906Z,67.90
2024-02-20T04:15:34.916Z,68.20
2024-02-20T04:18:02.997Z,67.70
2024-02-20T04:20:30.937Z,67.80
2024-02-20T04:22:58.873Z,67.80
2024-02-20T04:25:26.868Z,67.60
2024-02-20T04:27:54.978Z,67.50
2024-02-20T04:30:22.904Z,67.60
2024-02-20T04:32:50.809Z,67.50
2024-02-20T04:35:18.890Z,67.70
2024-02-20T04:37:49.366Z,67.80
2024-02-20T04:40:18.490Z,67.80
2024-02-20T04:42:46.538Z,67.70
2024-02-20T04:45:14.585Z,67.70
2024-02-20T04:47:42.644Z,67.60
2024-02-20T04:50:11.004Z,67.70
2024-02-20T04:52:39.050Z,67.50
2024-02-20T04:55:07.220Z,67.70
2024-02-20T04:57:35.258Z,67.70
2024-02-20T05:00:04.569Z,67.60
2024-02-20T05:02:34.908Z,67.70
2024-02-20T05:05:02.921Z,67.50
2024-02-20T05:07:31.646Z,67.60
2024-02-20T05:09:59.790Z,67.50
2024-02-20T05:12:27.855Z,67.40
2024-02-20T05:14:55.847Z,67.40
2024-02-20T05:17:23.847Z,67.40
2024-02-20T05:19:51.842Z,67.40
2024-02-20T05:22:20.926Z,67.30
2024-02-20T05:24:48.896Z,67.20
2024-02-20T05:27:16.782Z,67.30
2024-02-20T05:29:44.629Z,67.40
2024-02-20T05:32:12.504Z,67.00
2024-02-20T05:34:42.769Z,66.80
2024-02-20T05:37:10.869Z,66.80
2024-02-20T05:39:38.782Z,66.80
2024-02-20T05:42:08.557Z,66.80
2024-02-20T05:44:36.565Z,66.80
2024-02-20T05:47:05.165Z,66.70
2024-02-20T05:49:34.800Z,66.90
2024-02-20T05:52:02.886Z,67.10
2024-02-20T05:54:30.811Z,66.80
2024-02-20T05:56:59.121Z,66.90
2024-02-20T05:59:26.955Z,66.80
2024-02-20T06:01:54.910Z,66.60
2024-02-20T06:04:22.970Z,66.40
2024-02-20T06:06:51.048Z,66.10
2024-02-20T06:09:19.184Z,66.10
2024-02-20T06:11:47.272Z,66.10
2024-02-20T06:14:15.777Z,66.00
2024-02-20T06:16:43.774Z,66.10
2024-02-20T06:19:11.848Z,66.20
2024-02-20T06:21:41.821Z,66.00
2024-02-20T06:24:09.864Z,66.10
2024-02-20T06:26:37.773Z,66.10
2024-02-20T06:29:06.233Z,66.80
2024-02-20T06:31:37.637Z,66.30
2024-02-20T06:34:09.057Z,66.30
2024-02-20T06:36:37.382Z,66.50
2024-02-20T06:39:05.805Z,66.50
2024-02-20T06:41:33.666Z,66.60
2024-02-20T06:44:01.642Z,66.70
2024-02-20T06:46:29.523Z,66.90
2024-02-20T06:48:57.612Z,67.20
2024-02-20T06:51:25.964Z,67.50
2024-02-20T06:53:55.708Z,67.50
2024-02-20T06:56:23.659Z,67.50
2024-02-20T06:58:52.046Z,67.60
2024-02-20T07:01:20.133Z,67.60
2024-02-20T07:03:50.427Z,67.70
2024-02-20T07:06:18.722Z,67.80
2024-02-20T07:08:46.904Z,68.00
2024-02-20T07:11:14.999Z,68.00
2024-02-20T07:13:43.045Z,67.90
2024-02-20T07:16:11.126Z,67.90
2024-02-20T07:18:39.090Z,67.70
2024-02-20T07:21:06.991Z,67.80
2024-02-20T07:23:34.850Z,67.90
2024-02-20T07:26:02.749Z,67.60
2024-02-20T07:28:30.815Z,67.10
2024-02-20T07:30:58.766Z,66.90
2024-02-20T07:33:35.070Z,66.90
2024-02-20T07:36:05.813Z,67.00
2024-02-20T07:38:33.809Z,67.10
2024-02-20T07:41:04.944Z,66.90
2024-02-20T07:43:35.921Z,67.00
2024-02-20T07:46:06.148Z,67.10
2024-02-20T07:48:34.139Z,67.20
2024-02-20T07:51:05.577Z,67.20
2024-02-20T07:53:33.585Z,67.20
2024-02-20T07:56:01.804Z,67.10
2024-02-20T07:58:37.254Z,66.80
2024-02-20T08:01:11.719Z,66.60
2024-02-20T08:03:40.197Z,66.30
2024-02-20T08:06:09.503Z,66.20
2024-02-20T08:08:37.471Z,66.20
2024-02-20T08:11:05.399Z,66.20
2024-02-20T08:13:33.436Z,66.30
2024-02-20T08:16:03.244Z,66.50
2024-02-20T08:18:31.312Z,66.70
2024-02-20T08:20:59.701Z,66.80
2024-02-20T08:23:27.586Z,67.10
2024-02-20T08:25:55.447Z,67.00
2024-02-20T08:28:23.414Z,66.90
2024-02-20T08:30:52.826Z,67.00
2024-02-20T08:33:20.845Z,66.90
2024-02-20T08:35:48.925Z,66.80
2024-02-20T08:38:17.903Z,67.10
2024-02-20T08:40:45.841Z,67.20
2024-02-20T08:43:14.349Z,66.90
2024-02-20T08:45:42.276Z,66.80
2024-02-20T08:48:10.337Z,67.00
2024-02-20T08:50:38.346Z,67.20
2024-02-20T08:53:12.116Z,67.30
2024-02-20T08:55:41.118Z,66.60
2024-02-20T08:58:09.180Z,66.00
2024-02-20T09:00:37.278Z,65.30
2024-02-20T09:03:06.498Z,65.10
2024-02-20T09:05:35.821Z,64.50
2024-02-20T09:08:05.062Z,64.80
2024-02-20T09:10:33.170Z,65.20
2024-02-20T09:13:01.551Z,64.70
2024-02-20T09:15:29.655Z,64.90
2024-02-20T09:17:57.725Z,64.70
2024-02-20T09:20:25.707Z,65.20
2024-02-20T09:22:53.798Z,65.30
2024-02-20T09:25:21.722Z,65.30
2024-02-20T09:27:49.644Z,65.10
2024-02-20T09:30:17.699Z,64.90
2024-02-20T09:32:46.305Z,64.50
2024-02-20T09:35:16.035Z,63.60
2024-02-20T09:37:44.569Z,63.80
2024-02-20T09:40:18.221Z,63.80
2024-02-20T09:42:50.477Z,63.70
2024-02-20T09:45:21.559Z,63.60
2024-02-20T09:47:55.451Z,63.80
2024-02-20T09:50:26.230Z,61.70
2024-02-20T09:52:56.451Z,61.80
2024-02-20T09:55:26.246Z,61.60
2024-02-20T09:57:55.627Z,61.80
2024-02-20T10:00:23.705Z,61.10
2024-02-20T10:02:53.850Z,61.80
2024-02-20T10:05:21.974Z,62.20
2024-02-20T10:08:00.586Z,61.80
2024-02-20T10:10:31.380Z,61.40
2024-02-20T10:13:03.715Z,61.00
2024-02-20T10:15:32.568Z,60.80
2024-02-20T10:18:05.385Z,60.60
2024-02-20T10:20:34.144Z,60.90
2024-02-20T10:23:09.106Z,61.00
2024-02-20T10:25:38.960Z,60.80
2024-02-20T10:28:08.071Z,60.60
2024-02-20T10:30:36.550Z,60.90
2024-02-20T10:33:05.548Z,60.30
2024-02-20T10:35:34.010Z,60.60
2024-02-20T10:38:04.091Z,61.00
2024-02-20T10:40:33.500Z,59.30
2024-02-20T10:43:02.620Z,60.00
2024-02-20T10:45:30.668Z,59.70
2024-02-20T10:48:01.062Z,59.50
2024-02-20T10:50:30.502Z,59.10
2024-02-20T10:53:02.488Z,58.70
2024-02-20T10:55:33.668Z,59.20
2024-02-20T10:58:05.837Z,59.00
2024-02-20T11:00:38.404Z,59.40
2024-02-20T11:03:09.939Z,58.90
2024-02-20T11:05:38.369Z,59.70
2024-02-20T11:08:12.353Z,59.20
2024-02-20T11:10:42.957Z,58.90
2024-02-20T11:13:26.378Z,59.10
2024-02-20T11:15:55.504Z,58.00
2024-02-20T11:18:26.189Z,58.40
2024-02-20T11:21:02.572Z,58.60
2024-02-20T11:23:34.126Z,58.40
2024-02-20T11:26:12.058Z,58.20
2024-02-20T11:28:40.839Z,57.70
2024-02-20T11:31:09.142Z,57.10
2024-02-20T11:33:37.581Z,57.40
2024-02-20T11:36:08.248Z,57.70
2024-02-20T11:38:37.735Z,56.30
2024-02-20T11:41:10.164Z,57.00
2024-02-20T11:43:38.636Z,56.50
2024-02-20T11:46:06.735Z,56.80
2024-02-20T11:48:35.145Z,57.50
2024-02-20T11:51:03.787Z,57.30
2024-02-20T11:53:31.953Z,57.10
2024-02-20T11:56:00.854Z,56.50
2024-02-20T11:58:30.034Z,55.60
2024-02-20T12:01:05.714Z,54.70
2024-02-20T12:03:37.493Z,55.00
2024-02-20T12:06:09.376Z,55.10
2024-02-20T12:08:42.352Z,55.10
2024-02-20T12:11:15.450Z,54.50
2024-02-20T12:13:43.666Z,54.60
2024-02-20T12:16:28.732Z,54.10
2024-02-20T12:21:30.822Z,53.90
2024-02-20T12:24:00.544Z,54.30
2024-02-20T12:26:29.180Z,55.00
2024-02-20T12:28:57.430Z,54.30
2024-02-20T12:31:28.577Z,54.60
2024-02-20T12:33:57.190Z,54.70
2024-02-20T12:36:26.977Z,55.20
2024-02-20T12:38:55.232Z,55.60
2024-02-20T12:41:23.382Z,54.50
2024-02-20T12:43:51.504Z,54.80
2024-02-20T12:46:19.742Z,54.50
2024-02-20T12:48:56.477Z,54.50
2024-02-20T12:51:28.964Z,54.10
2024-02-20T12:53:57.423Z,54.50
2024-02-20T12:56:26.507Z,54.90
2024-02-20T12:58:54.631Z,54.60
2024-02-20T13:01:22.812Z,54.60
2024-02-20T13:03:50.901Z,55.30
2024-02-20T13:06:19.263Z,54.30
2024-02-20T13:08:47.514Z,55.10
2024-02-20T13:11:18.752Z,54.90
2024-02-20T13:13:48.080Z,54.30
2024-02-20T13:16:16.138Z,54.80
2024-02-20T13:18:44.100Z,55.20
2024-02-20T13:21:12.052Z,55.40
2024-02-20T13:23:39.936Z,55.40
2024-02-20T13:26:08.466Z,55.00
2024-02-20T13:28:37.165Z,55.00
2024-02-20T13:31:05.123Z,55.00
2024-02-20T13:33:33.985Z,54.10
2024-02-20T13:36:01.968Z,54.60
2024-02-20T13:38:29.970Z,55.00
2024-02-20T13:40:58.169Z,54.80
2024-02-20T13:43:26.406Z,54.60
2024-02-20T13:45:54.637Z,55.00
2024-02-20T13:48:22.730Z,55.40
2024-02-20T13:50:50.677Z,55.60
2024-02-20T13:53:21.419Z,55.70
2024-02-20T13:55:50.872Z,55.60
2024-02-20T13:58:19.254Z,55.90
2024-02-20T14:00:47.656Z,55.50
2024-02-20T14:03:17.870Z,55.50
2024-02-20T14:05:46.214Z,55.50
2024-02-20T14:08:14.477Z,55.70
2024-02-20T14:10:42.478Z,55.60
2024-02-20T14:13:10.736Z,55.20
2024-02-20T14:15:38.855Z,55.30
2024-02-20T14:18:07.132Z,55.10
2024-02-20T14:20:36.338Z,55.60
2024-02-20T14:23:08.082Z,54.90
2024-02-20T14:25:36.660Z,55.20
2024-02-20T14:28:05.730Z,54.60
2024-02-20T14:30:40.995Z,54.00
2024-02-20T14:33:14.325Z,54.80
2024-02-20T14:35:42.839Z,54.70
2024-02-20T14:38:12.250Z,54.00
2024-02-20T14:40:40.330Z,54.80
2024-02-20T14:43:08.548Z,54.30
2024-02-20T14:45:36.698Z,54.30
2024-02-20T14:48:06.117Z,53.90
2024-02-20T14:50:34.763Z,53.60
2024-02-20T14:53:04.452Z,53.40
2024-02-20T14:55:36.763Z,53.50
2024-02-20T14:58:05.224Z,53.40
2024-02-20T15:00:33.870Z,53.40
2024-02-20T15:03:01.815Z,52.90
2024-02-20T15:05:30.541Z,53.40
2024-02-20T15:07:58.766Z,53.30
2024-02-20T15:10:29.896Z,53.80
2024-02-20T15:12:58.047Z,53.90
2024-02-20T15:15:26.009Z,54.30
2024-02-20T15:17:55.156Z,54.20
2024-02-20T15:20:23.359Z,54.00
2024-02-20T15:22:51.440Z,54.80
2024-02-20T15:25:22.358Z,54.70
2024-02-20T15:27:50.365Z,54.60
2024-02-20T15:30:19.437Z,54.40
2024-02-20T15:32:47.757Z,54.50
2024-02-20T15:35:16.728Z,54.30
2024-02-20T15:37:47.200Z,54.60
2024-02-20T15:40:15.943Z,54.80
2024-02-20T15:42:46.107Z,54.50
2024-02-20T15:45:14.810Z,54.60
2024-02-20T15:47:44.382Z,54.20
2024-02-20T15:50:12.670Z,54.50
2024-02-20T15:52:42.762Z,54.40
2024-02-20T15:55:13.019Z,54.70
2024-02-20T15:57:41.463Z,54.50
2024-02-20T16:00:10.554Z,54.50
2024-02-20T16:02:43.506Z,54.60
2024-02-20T16:05:11.582Z,54.80
2024-02-20T16:07:39.774Z,55.00
2024-02-20T16:10:08.654Z,54.90
2024-02-20T16:12:39.551Z,55.10
2024-02-20T16:15:09.584Z,55.10
2024-02-20T16:17:40.265Z,54.40
2024-02-20T16:20:09.211Z,54.60
2024-02-20T16:22:37.885Z,54.60
2024-02-20T16:25:09.365Z,54.40
2024-02-20T16:27:38.453Z,54.70
2024-02-20T16:30:07.719Z,54.70
2024-02-20T16:32:35.722Z,54.80
2024-02-20T16:35:04.568Z,55.00
2024-02-20T16:37:32.757Z,54.60
2024-02-20T16:40:00.737Z,54.60
2024-02-20T16:42:28.704Z,54.60
2024-02-20T16:44:56.672Z,54.80
2024-02-20T16:47:25.150Z,55.00
2024-02-20T16:49:53.464Z,55.10
2024-02-20T16:52:21.563Z,55.50
2024-02-20T16:54:49.674Z,55.50
2024-02-20T16:57:17.803Z,55.80
2024-02-20T16:59:45.770Z,55.80
2024-02-20T17:02:13.812Z,55.70
2024-02-20T17:04:42.909Z,56.10
2024-02-20T17:07:11.294Z,56.00
2024-02-20T17:09:39.361Z,56.20
2024-02-20T17:12:07.733Z,56.50
2024-02-20T17:14:35.796Z,56.50
2024-02-20T17:17:06.831Z,56.40
2024-02-20T17:19:34.953Z,56.40
2024-02-20T17:22:03.036Z,56.60
2024-02-20T17:24:31.047Z,56.90
2024-02-20T17:26:59.188Z,56.90
2024-02-20T17:29:28.916Z,57.00
2024-02-20T17:31:57.236Z,57.00
2024-02-20T17:34:25.879Z,57.10
2024-02-20T17:36:54.001Z,57.20
2024-02-20T17:39:22.643Z,57.40
2024-02-20T17:41:50.978Z,57.50
2024-02-20T17:44:19.101Z,57.70
2024-02-20T17:46:54.102Z,57.80
2024-02-20T17:49:22.822Z,57.90
2024-02-20T17:51:51.463Z,58.00
2024-02-20T17:54:19.369Z,58.10
2024-02-20T17:56:47.540Z,58.20
2024-02-20T17:59:15.779Z,58.40
2024-02-20T18:01:45.235Z,58.60
2024-02-20T18:04:13.374Z,58.50
2024-02-20T18:06:42.213Z,58.60
2024-02-20T18:09:11.392Z,58.70
2024-02-20T18:11:39.372Z,58.70
2024-02-20T18:14:07.362Z,58.70
2024-02-20T18:16:35.669Z,58.80
2024-02-20T18:19:04.341Z,59.00
2024-02-20T18:21:32.401Z,59.10
2024-02-20T18:24:00.735Z,59.30
2024-02-20T18:26:30.859Z,59.40
2024-02-20T18:28:59.916Z,59.40
2024-02-20T18:31:27.935Z,59.40
2024-02-20T18:33:56.218Z,59.60
2024-02-20T18:36:24.153Z,59.60
2024-02-20T18:38:52.109Z,59.80
2024-02-20T18:41:20.241Z,59.90
2024-02-20T18:43:48.353Z,60.00
2024-02-20T18:46:16.614Z,60.10
2024-02-20T18:48:44.761Z,60.10
2024-02-20T18:51:12.950Z,60.10
2024-02-20T18:53:40.968Z,60.10
2024-02-20T18:56:09.108Z,60.20
2024-02-20T18:58:37.222Z,60.40
2024-02-20T19:01:05.439Z,60.30
2024-02-20T19:03:33.411Z,60.20
2024-02-20T19:06:01.312Z,60.20
2024-02-20T19:08:34.974Z,60.30
2024-02-20T19:11:03.266Z,60.10
2024-02-20T19:13:31.425Z,60.20
2024-02-20T19:15:59.401Z,60.10
2024-02-20T19:18:27.381Z,60.20
2024-02-20T19:20:55.314Z,60.20
2024-02-20T19:23:24.089Z,60.10
2024-02-20T19:25:52.194Z,60.20
2024-02-20T19:28:20.275Z,60.30
2024-02-20T19:30:48.546Z,60.50
2024-02-20T19:33:16.883Z,60.60
2024-02-20T19:35:44.921Z,61.30
2024-02-20T19:38:13.756Z,60.80
2024-02-20T19:40:42.734Z,60.90
2024-02-20T19:43:10.734Z,60.70
2024-02-20T19:45:38.745Z,60.90
2024-02-20T19:48:07.474Z,60.90
2024-02-20T19:50:35.486Z,60.90
2024-02-20T19:53:03.616Z,61.00
2024-02-20T19:55:31.663Z,61.00
2024-02-20T19:57:59.730Z,61.20
2024-02-20T20:00:27.684Z,61.20
2024-02-20T20:02:55.624Z,61.20
2024-02-20T20:05:23.614Z,61.20
2024-02-20T20:07:51.717Z,61.30
2024-02-20T20:10:19.807Z,61.20
2024-02-20T20:12:47.767Z,61.30
2024-02-20T20:15:15.784Z,61.50
2024-02-20T20:17:44.785Z,61.40
2024-02-20T20:20:13.642Z,61.20
2024-02-20T20:22:41.987Z,61.20
2024-02-20T20:25:10.516Z,61.30
2024-02-20T20:27:38.503Z,61.10
2024-02-20T20:30:08.062Z,61.10
2024-02-20T20:32:36.116Z,61.40
2024-02-20T20:35:07.211Z,61.50
2024-02-20T20:37:35.282Z,61.50
2024-02-20T20:40:08.276Z,61.60
2024-02-20T20:42:36.557Z,61.60
2024-02-20T20:45:05.752Z,61.80
2024-02-20T20:47:33.642Z,61.70
2024-02-20T20:50:01.760Z,61.80
2024-02-20T20:52:29.844Z,62.00
2024-02-20T20:54:57.876Z,62.10
2024-02-20T20:57:25.745Z,62.20
2024-02-20T20:59:53.596Z,62.20
2024-02-20T21:02:21.695Z,62.40
2024-02-20T21:04:50.269Z,62.50
2024-02-20T21:07:18.370Z,62.70
2024-02-20T21:09:46.396Z,62.90
2024-02-20T21:12:14.288Z,62.90
2024-02-20T21:14:42.406Z,63.00
2024-02-20T21:17:10.280Z,63.10
2024-02-20T21:19:38.250Z,63.10
2024-02-20T21:22:07.107Z,63.10
2024-02-20T21:24:35.050Z,63.10
2024-02-20T21:27:03.452Z,63.10
2024-02-20T21:29:31.423Z,63.30
2024-02-20T21:31:59.752Z,63.40
2024-02-20T21:34:27.743Z,63.30
2024-02-20T21:36:55.675Z,63.30
2024-02-20T21:39:23.545Z,63.30
2024-02-20T21:41:51.516Z,63.40
2024-02-20T21:44:19.363Z,63.50
2024-02-20T21:46:47.249Z,63.30
2024-02-20T21:49:15.395Z,63.10
2024-02-20T21:51:43.472Z,63.10
2024-02-20T21:54:11.335Z,63.30
2024-02-20T21:56:39.191Z,63.10
2024-02-20T21:59:07.142Z,63.30
2024-02-20T22:01:35.102Z,63.20
2024-02-20T22:04:03.918Z,63.30
2024-02-20T22:06:31.904Z,63.30
2024-02-20T22:08:59.831Z,63.50
2024-02-20T22:11:27.873Z,63.60
2024-02-20T22:13:56.086Z,63.50
2024-02-20T22:16:24.639Z,63.60
2024-02-20T22:18:52.909Z,63.40
2024-02-20T22:21:22.730Z,63.70
2024-02-20T22:23:50.668Z,63.80
2024-02-20T22:26:19.309Z,63.70
2024-02-20T22:28:47.310Z,63.60
2024-02-20T22:31:15.823Z,63.80
2024-02-20T22:33:44.203Z,63.90
2024-02-20T22:36:18.784Z,64.00
2024-02-20T22:38:47.446Z,64.30
2024-02-20T22:41:22.054Z,64.40
2024-02-20T22:43:50.047Z,64.50
2024-02-20T22:46:18.011Z,64.60
2024-02-20T22:48:47.570Z,64.50
2024-02-20T22:51:15.750Z,64.60
2024-02-20T22:53:43.820Z,64.40
2024-02-20T22:56:11.689Z,64.40
2024-02-20T22:58:41.910Z,64.70
2024-02-20T23:01:10.205Z,64.80
2024-02-20T23:03:38.141Z,64.20
2024-02-20T23:06:06.190Z,64.30
2024-02-20T23:08:35.842Z,64.40
2024-02-20T23:11:04.108Z,64.40
2024-02-20T23:13:32.130Z,64.40
2024-02-20T23:16:00.139Z,64.30
2024-02-20T23:18:28.202Z,64.00
2024-02-20T23:20:56.120Z,63.90
2024-02-20T23:23:23.987Z,63.80
2024-02-20T23:25:52.006Z,63.60
2024-02-20T23:28:20.272Z,63.70
2024-02-20T23:30:48.242Z,63.80
2024-02-20T23:33:17.544Z,63.60
2024-02-20T23:35:45.578Z,63.70
2024-02-20T23:38:13.504Z,63.60
2024-02-20T23:40:41.450Z,63.70
2024-02-20T23:43:09.532Z,63.60
2024-02-20T23:45:37.535Z,63.60
2024-02-20T23:48:06.217Z,64.00
2024-02-20T23:50:34.207Z,64.10
2024-02-20T23:53:02.136Z,64.00
2024-02-20T23:55:30.237Z,63.90
2024-02-20T23:57:58.140Z,64.00
